createdAt,value
2023-04-28T00:01:51.303Z,100.00
2023-04-28T00:06:56.700Z,100.00
2023-04-28T00:12:01.802Z,100.00
2023-04-28T00:17:06.205Z,100.00
2023-04-28T00:22:11.588Z,100.00
2023-04-28T00:27:15.596Z,100.00
2023-04-28T00:32:19.603Z,100.00
2023-04-28T00:37:24.936Z,100.00
2023-04-28T00:42:29.281Z,100.00
2023-04-28T00:47:33.920Z,100.00
2023-04-28T00:52:39.942Z,100.00
2023-04-28T00:57:44.379Z,100.00
2023-04-28T01:02:48.414Z,100.00
2023-04-28T01:07:54.324Z,100.00
2023-04-28T01:12:58.529Z,100.00
2023-04-28T01:18:02.567Z,100.00
2023-04-28T01:23:13.311Z,100.00
2023-04-28T01:28:19.024Z,100.00
2023-04-28T01:33:23.027Z,100.00
2023-04-28T01:38:27.127Z,100.00
2023-04-28T01:43:32.522Z,100.00
2023-04-28T01:48:36.700Z,100.00
2023-04-28T01:53:40.612Z,100.00
2023-04-28T01:58:46.379Z,100.00
2023-04-28T02:03:50.817Z,100.00
2023-04-28T02:08:55.047Z,100.00
2023-04-28T02:14:00.345Z,100.00
2023-04-28T02:19:04.352Z,100.00
2023-04-28T02:24:09.360Z,100.00
2023-04-28T02:29:14.586Z,100.00
2023-04-28T02:34:18.646Z,100.00
2023-04-28T02:39:25.399Z,100.00
2023-04-28T02:44:30.929Z,100.00
2023-04-28T02:49:34.835Z,100.00
2023-04-28T02:54:38.717Z,100.00
2023-04-28T02:59:44.536Z,100.00
2023-04-28T03:04:48.757Z,100.00
2023-04-28T03:09:52.930Z,100.00
2023-04-28T03:14:58.343Z,100.00
2023-04-28T03:20:02.342Z,100.00
2023-04-28T03:25:07.627Z,100.00
2023-04-28T03:30:20.322Z,100.00
2023-04-28T03:35:24.335Z,100.00
2023-04-28T03:40:28.691Z,100.00
2023-04-28T03:45:57.148Z,100.00
2023-04-28T03:51:01.527Z,100.00
2023-04-28T03:56:05.891Z,100.00
2023-04-28T04:01:11.540Z,100.00
2023-04-28T04:06:15.709Z,100.00
2023-04-28T04:11:19.774Z,100.00
2023-04-28T04:16:25.441Z,100.00
2023-04-28T04:21:33.039Z,100.00
2023-04-28T04:26:37.175Z,100.00
2023-04-28T04:31:54.491Z,100.00
2023-04-28T04:36:59.883Z,100.00
2023-04-28T04:42:16.802Z,100.00
2023-04-28T04:47:39.649Z,100.00
2023-04-28T04:52:43.664Z,100.00
2023-04-28T04:57:48.204Z,100.00
2023-04-28T05:03:16.961Z,100.00
2023-04-28T05:08:21.168Z,100.00
2023-04-28T05:13:25.219Z,100.00
2023-04-28T05:18:36.822Z,100.00
2023-04-28T05:23:41.063Z,100.00
2023-04-28T05:28:45.115Z,100.00
2023-04-28T05:33:50.494Z,100.00
2023-04-28T05:38:54.644Z,92.78
2023-04-28T05:43:59.203Z,91.82
2023-04-28T05:49:04.728Z,88.58
2023-04-28T05:54:12.747Z,84.13
2023-04-28T05:59:22.224Z,82.73
2023-04-28T06:04:27.955Z,78.27
2023-04-28T06:09:32.692Z,93.75
2023-04-28T06:14:37.937Z,88.58
2023-04-28T06:19:43.457Z,80.85
2023-04-28T06:24:47.933Z,75.35
2023-04-28T06:29:55.954Z,75.19
2023-04-28T06:35:01.195Z,73.53
2023-04-28T06:40:05.739Z,77.68
2023-04-28T06:45:11.060Z,72.91
2023-04-28T06:50:16.529Z,64.74
2023-04-28T06:55:20.709Z,65.92
2023-04-28T07:00:24.975Z,63.15
2023-04-28T07:05:30.311Z,59.47
2023-04-28T07:10:34.247Z,63.39
2023-04-28T07:15:38.181Z,63.53
2023-04-28T07:20:43.558Z,60.90
2023-04-28T07:25:47.558Z,58.30
2023-04-28T07:30:51.457Z,52.74
2023-04-28T07:35:56.878Z,51.33
2023-04-28T07:41:00.874Z,55.02
2023-04-28T07:46:05.070Z,51.65
2023-04-28T07:51:11.081Z,50.41
2023-04-28T07:56:15.104Z,49.46
2023-04-28T08:01:19.586Z,46.13
2023-04-28T08:06:25.149Z,46.30
2023-04-28T08:11:29.033Z,39.62
2023-04-28T08:16:36.622Z,40.64
2023-04-28T08:21:42.011Z,38.20
2023-04-28T08:26:46.256Z,39.07
2023-04-28T08:31:50.109Z,38.20
2023-04-28T08:36:55.442Z,38.44
2023-04-28T08:41:59.418Z,36.95
2023-04-28T08:47:06.175Z,36.39
2023-04-28T08:52:13.784Z,38.23
2023-04-28T08:57:18.533Z,44.87
2023-04-28T09:07:28.055Z,42.16
2023-04-28T09:12:38.575Z,42.57
2023-04-28T09:17:50.082Z,43.69
2023-04-28T09:22:56.854Z,40.20
2023-04-28T09:28:00.959Z,39.62
2023-04-28T09:33:07.369Z,39.80
2023-04-28T09:38:14.293Z,40.11
2023-04-28T09:43:24.559Z,39.80
2023-04-28T09:48:30.823Z,41.04
2023-04-28T09:53:36.708Z,38.56
2023-04-28T09:58:43.760Z,36.56
2023-04-28T10:03:49.173Z,35.81
2023-04-28T10:08:54.571Z,33.09
2023-04-28T10:13:58.548Z,34.30
2023-04-28T10:19:04.381Z,32.63
2023-04-28T10:24:17.119Z,35.89
2023-04-28T10:29:25.830Z,38.32
2023-04-28T10:34:31.462Z,39.67
2023-04-28T10:39:36.871Z,39.71
2023-04-28T10:44:44.838Z,41.91
2023-04-28T10:50:11.743Z,38.91
2023-04-28T10:55:36.563Z,35.94
2023-04-28T11:00:42.184Z,35.96
2023-04-28T11:06:19.362Z,36.47
2023-04-28T11:11:28.510Z,36.02
2023-04-28T11:16:33.412Z,36.92
2023-04-28T11:21:37.341Z,33.87
2023-04-28T11:26:43.867Z,34.57
2023-04-28T11:31:51.445Z,32.99
2023-04-28T11:36:56.066Z,32.59
2023-04-28T11:42:04.270Z,34.15
2023-04-28T11:47:08.782Z,32.66
2023-04-28T11:52:13.792Z,28.59
2023-04-28T11:57:23.327Z,27.09
2023-04-28T12:02:29.924Z,26.73
2023-04-28T12:07:43.844Z,29.79
2023-04-28T12:12:53.007Z,30.41
2023-04-28T12:18:10.603Z,28.45
2023-04-28T12:23:14.927Z,27.68
2023-04-28T12:28:20.280Z,28.04
2023-04-28T12:33:26.104Z,28.35
2023-04-28T12:38:30.208Z,26.54
2023-04-28T12:43:35.571Z,27.57
2023-04-28T12:48:39.726Z,25.03
2023-04-28T12:53:43.679Z,25.91
2023-04-28T12:58:48.905Z,26.03
2023-04-28T13:03:53.678Z,25.96
2023-04-28T13:08:57.712Z,26.98
2023-04-28T13:14:04.128Z,26.08
2023-04-28T13:19:10.754Z,26.45
2023-04-28T13:24:14.968Z,26.44
2023-04-28T13:29:20.615Z,27.90
2023-04-28T13:34:24.545Z,27.71
2023-04-28T13:39:28.676Z,27.55
2023-04-28T13:44:34.030Z,27.79
2023-04-28T13:49:39.889Z,28.09
2023-04-28T13:54:44.104Z,26.89
2023-04-28T13:59:50.244Z,26.64
2023-04-28T14:04:56.933Z,26.90
2023-04-28T14:10:01.173Z,24.52
2023-04-28T14:15:07.717Z,26.31
2023-04-28T14:20:12.255Z,24.94
2023-04-28T14:25:16.399Z,25.29
2023-04-28T14:30:23.045Z,25.32
2023-04-28T14:35:27.388Z,24.34
2023-04-28T14:40:31.547Z,24.02
2023-04-28T14:45:37.944Z,24.92
2023-04-28T14:50:44.655Z,26.38
2023-04-28T14:55:48.921Z,25.00
2023-04-28T15:00:54.364Z,27.37
2023-04-28T15:05:58.434Z,26.92
2023-04-28T15:11:02.827Z,25.12
2023-04-28T15:16:08.723Z,26.88
2023-04-28T15:21:13.086Z,26.22
2023-04-28T15:26:17.254Z,26.63
2023-04-28T15:31:23.918Z,30.64
2023-04-28T15:36:28.726Z,32.94
2023-04-28T15:41:32.730Z,33.32
2023-04-28T15:46:40.551Z,33.14
2023-04-28T15:51:45.227Z,32.61
2023-04-28T15:56:49.288Z,34.47
2023-04-28T16:01:55.567Z,35.17
2023-04-28T16:07:02.547Z,34.96
2023-04-28T16:12:06.762Z,35.47
2023-04-28T16:17:12.211Z,37.93
2023-04-28T16:22:16.193Z,40.45
2023-04-28T16:27:20.638Z,42.74
2023-04-28T16:32:26.419Z,43.91
2023-04-28T16:37:30.923Z,44.08
2023-04-28T16:42:34.893Z,46.15
2023-04-28T16:47:42.577Z,47.61
2023-04-28T16:52:46.832Z,44.98
2023-04-28T16:57:50.997Z,47.98
2023-04-28T17:02:56.965Z,49.17
2023-04-28T17:08:03.613Z,47.31
2023-04-28T17:13:09.986Z,47.91
2023-04-28T17:18:15.798Z,48.12
2023-04-28T17:23:20.001Z,48.22
2023-04-28T17:28:25.342Z,48.51
2023-04-28T17:33:30.935Z,48.58
2023-04-28T17:38:36.408Z,50.57
2023-04-28T17:43:40.835Z,52.49
2023-04-28T17:48:46.352Z,53.33
2023-04-28T17:53:50.465Z,55.44
2023-04-28T17:58:55.281Z,53.35
2023-04-28T18:04:00.634Z,55.75
2023-04-28T18:09:05.154Z,57.60
2023-04-28T18:14:09.290Z,57.84
2023-04-28T18:19:15.063Z,55.29
2023-04-28T18:24:22.006Z,56.95
2023-04-28T18:29:26.543Z,56.02
2023-04-28T18:34:31.922Z,56.82
2023-04-28T18:39:36.350Z,57.08
2023-04-28T18:44:40.927Z,57.09
2023-04-28T18:49:47.036Z,57.29
2023-04-28T18:54:51.233Z,56.48
2023-04-28T18:59:55.225Z,55.02
2023-04-28T19:05:05.712Z,55.35
2023-04-28T19:10:10.796Z,54.09
2023-04-28T19:15:15.018Z,55.30
2023-04-28T19:20:22.108Z,56.83
2023-04-28T19:25:26.081Z,56.99
2023-04-28T19:30:30.273Z,55.67
2023-04-28T19:35:35.830Z,56.84
2023-04-28T19:40:40.688Z,56.02
2023-04-28T19:45:45.097Z,58.99
2023-04-28T19:50:50.609Z,58.08
2023-04-28T19:55:54.827Z,60.41
2023-04-28T20:00:58.785Z,60.17
2023-04-28T20:06:04.162Z,61.95
2023-04-28T20:11:08.435Z,61.74
2023-04-28T20:16:12.590Z,62.82
2023-04-28T20:21:18.106Z,63.79
2023-04-28T20:26:22.500Z,63.72
2023-04-28T20:31:26.630Z,64.23
2023-04-28T20:36:35.307Z,66.88
2023-04-28T20:41:41.111Z,67.19
2023-04-28T20:46:46.408Z,65.39
2023-04-28T20:51:52.049Z,64.67
2023-04-28T20:56:56.190Z,64.53
2023-04-28T21:02:00.586Z,67.34
2023-04-28T21:07:06.211Z,66.70
2023-04-28T21:12:11.023Z,67.69
2023-04-28T21:17:15.085Z,68.69
2023-04-28T21:22:21.009Z,69.55
2023-04-28T21:27:24.943Z,66.21
2023-04-28T21:32:29.023Z,66.92
2023-04-28T21:37:34.533Z,65.77
2023-04-28T21:42:38.617Z,67.51
2023-04-28T21:47:43.684Z,65.15
2023-04-28T21:52:49.110Z,69.03
2023-04-28T21:57:54.112Z,70.09
2023-04-28T22:02:59.199Z,70.71
2023-04-28T22:08:05.849Z,70.90
2023-04-28T22:13:09.915Z,69.95
2023-04-28T22:18:14.331Z,80.89
2023-04-28T22:23:20.022Z,83.05
2023-04-28T22:28:24.559Z,83.17
2023-04-28T22:33:28.823Z,79.97
2023-04-28T22:38:34.461Z,78.52
2023-04-28T22:43:40.958Z,79.90
2023-04-28T22:48:45.308Z,79.09
2023-04-28T22:53:50.893Z,80.56
2023-04-28T22:58:54.994Z,79.70
2023-04-28T23:03:59.160Z,89.85
2023-04-28T23:09:05.440Z,94.02
2023-04-28T23:14:10.838Z,95.54
2023-04-28T23:19:15.066Z,96.79
2023-04-28T23:24:20.573Z,98.71
2023-04-28T23:29:24.505Z,97.63
2023-04-28T23:34:28.516Z,98.33
2023-04-28T23:39:34.060Z,96.15
2023-04-28T23:44:38.029Z,94.21
2023-04-28T23:49:42.259Z,95.48
2023-04-28T23:54:48.173Z,94.14
2023-04-28T23:59:52.347Z,95.57
